Time;durP1;ratioP1;P1;durP2;ratioP2;P2;SDS_P1;SDS_P2;PMS_P1;PMS_P2;Temp;Humidity;BMP_temperature;BMP_pressure;BME280_temperature;BME280_humidity;BME280_pressure;Samples;Min_cycle;Max_cycle;Signal;HPM_P1;HPM_P2
2023/01/04 00:01:17;;;;;;;;;1.00;1.00;;;;;11.82;72.87;101747.25;6332839;22;47631;-75
2023/01/04 00:03:43;;;;;;;;;2.00;1.50;;;;;11.76;72.85;101737.94;6333431;22;45904;-74
2023/01/04 00:06:11;;;;;;;;;2.00;2.00;;;;;11.81;72.89;101750.78;6333828;22;45745;-76
2023/01/04 00:11:58;;;;;;;;;1.00;1.00;;;;;11.83;72.80;101756.78;6332114;22;45925;-74
2023/01/04 00:14:23;;;;;;;;;2.50;2.00;;;;;11.79;73.11;101756.13;6332847;22;46068;-73
2023/01/04 00:16:48;;;;;;;;;1.00;1.00;;;;;11.80;72.94;101764.84;6332739;22;45674;-75
2023/01/04 00:19:14;;;;;;;;;1.25;1.25;;;;;11.83;72.97;101759.41;6331672;22;45646;-75
2023/01/04 00:21:39;;;;;;;;;3.25;2.00;;;;;11.82;72.81;101763.84;6332205;22;48635;-75
2023/01/04 00:24:05;;;;;;;;;2.75;2.00;;;;;11.83;73.14;101772.53;6332931;22;45946;-74
2023/01/04 00:26:33;;;;;;;;;1.50;1.00;;;;;11.82;73.03;101755.13;6332848;22;45855;-73
2023/01/04 00:29:04;;;;;;;;;2.75;2.00;;;;;11.83;72.96;101748.91;6331970;22;45608;-75
2023/01/04 00:31:30;;;;;;;;;3.75;1.75;;;;;11.85;72.88;101762.81;6332597;22;45531;-75
2023/01/04 00:33:57;;;;;;;;;3.50;2.00;;;;;11.84;72.97;101761.94;6332238;22;46695;-75
2023/01/04 00:36:24;;;;;;;;;2.00;1.00;;;;;11.77;73.13;101737.81;6332557;22;45502;-75
2023/01/04 00:42:10;;;;;;;;;3.75;3.00;;;;;11.86;73.37;101757.47;6332442;22;45577;-75
2023/01/04 00:44:36;;;;;;;;;3.75;3.00;;;;;11.82;73.14;101748.09;6331980;22;45533;-76
2023/01/04 00:47:02;;;;;;;;;1.00;1.00;;;;;11.85;73.12;101763.66;6304061;22;45602;-73
2023/01/04 00:49:29;;;;;;;;;3.50;2.00;;;;;11.85;73.24;101760.19;6333215;22;45729;-75
2023/01/04 00:51:55;;;;;;;;;2.00;1.25;;;;;11.78;73.29;101734.28;6332295;22;46285;-74
2023/01/04 00:54:20;;;;;;;;;1.00;1.00;;;;;11.84;73.43;101754.06;6331986;22;47103;-74
2023/01/04 00:56:46;;;;;;;;;1.00;1.00;;;;;11.73;73.41;101733.69;6331975;22;45549;-74
2023/01/04 00:59:15;;;;;;;;;5.25;3.00;;;;;11.84;73.52;101756.69;6332258;22;45783;-77
2023/01/04 01:01:42;;;;;;;;;2.25;2.00;;;;;11.81;73.38;101743.75;6331882;22;47179;-74
2023/01/04 01:04:10;;;;;;;;;2.00;2.00;;;;;11.83;73.51;101741.03;6332907;22;45966;-75
2023/01/04 01:06:36;;;;;;;;;1.75;1.75;;;;;11.86;73.59;101746.13;6333014;22;45612;-76
2023/01/04 01:12:23;;;;;;;;;2.75;2.00;;;;;11.89;73.63;101728.38;6332117;22;45912;-75
2023/01/04 01:14:48;;;;;;;;;2.50;1.50;;;;;11.90;73.24;101731.88;6332292;22;46312;-74
2023/01/04 01:17:13;;;;;;;;;2.00;1.00;;;;;11.92;73.59;101715.09;6332361;22;45664;-74
2023/01/04 01:19:38;;;;;;;;;2.00;2.00;;;;;11.94;73.48;101728.13;6332804;22;45604;-76
2023/01/04 01:22:04;;;;;;;;;3.50;3.00;;;;;11.93;73.38;101721.19;6332393;22;45623;-75
2023/01/04 01:28:04;;;;;;;;;4.75;3.00;;;;;11.87;73.63;101711.06;6327391;22;45777;-75
2023/01/04 01:30:30;;;;;;;;;4.00;3.00;;;;;11.84;73.38;101716.47;6332544;22;45463;-74
2023/01/04 01:32:55;;;;;;;;;3.00;2.00;;;;;11.87;73.72;101721.56;6331925;22;48041;-76
2023/01/04 01:35:20;;;;;;;;;2.75;1.50;;;;;11.93;73.65;101726.44;6332353;22;45980;-76
2023/01/04 01:37:46;;;;;;;;;3.25;2.50;;;;;11.88;73.67;101718.81;6303794;22;45617;-76
2023/01/04 01:40:11;;;;;;;;;3.50;2.00;;;;;11.92;73.39;101737.88;6332683;22;45571;-77
2023/01/04 01:42:37;;;;;;;;;2.00;2.00;;;;;11.91;73.63;101730.94;6333795;22;45732;-75
2023/01/04 01:45:09;;;;;;;;;6.00;3.00;;;;;11.90;73.59;101740.59;6333387;22;46115;-74
2023/01/04 01:47:43;;;;;;;;;3.00;2.50;;;;;11.90;73.59;101729.25;6332847;22;45565;-72
2023/01/04 01:50:21;;;;;;;;;5.50;3.00;;;;;11.89;73.64;101736.28;6334032;22;45533;-76
2023/01/04 01:52:47;;;;;;;;;3.00;3.00;;;;;11.92;73.75;101732.63;6332694;22;45833;-76
2023/01/04 01:55:14;;;;;;;;;3.00;2.00;;;;;11.93;73.71;101729.09;6332395;22;46087;-76
2023/01/04 01:57:40;;;;;;;;;2.00;1.25;;;;;11.90;73.70;101722.22;6304969;22;45721;-74
2023/01/04 02:00:11;;;;;;;;;2.00;2.00;;;;;11.92;73.87;101719.50;6333054;22;45771;-77
2023/01/04 02:02:43;;;;;;;;;3.00;2.00;;;;;11.95;73.74;101724.56;6304739;22;49369;-77
2023/01/04 02:05:09;;;;;;;;;2.00;1.75;;;;;11.94;73.56;101715.84;6333115;22;47079;-76
2023/01/04 02:07:36;;;;;;;;;2.00;1.00;;;;;11.91;73.49;101707.31;6305858;22;45618;-75
2023/01/04 02:14:25;;;;;;;;;3.50;2.50;;;;;11.98;73.67;101706.88;6333032;22;46097;-73
2023/01/04 02:16:25;;;;;;;;;1.00;1.00;;;;;11.99;73.80;101715.56;6332845;22;45734;-75
2023/01/04 02:19:00;;;;;;;;;3.00;2.00;;;;;12.00;73.44;101722.50;6333198;22;45445;-74
2023/01/04 02:21:53;;;;;;;;;3.00;2.00;;;;;11.93;73.57;101716.75;6332554;22;45817;-75
2023/01/04 02:24:32;;;;;;;;;2.00;2.00;;;;;11.97;73.79;101727.97;6305041;22;47130;-76
2023/01/04 02:27:21;;;;;;;;;2.00;2.00;;;;;11.96;73.55;101713.13;6332743;22;45882;-75
2023/01/04 02:30:08;;;;;;;;;3.00;3.00;;;;;11.94;73.66;101717.63;6333546;22;45681;-75
2023/01/04 02:32:42;;;;;;;;;2.25;2.00;;;;;11.94;73.78;101728.13;6333034;22;45735;-76
2023/01/04 02:35:20;;;;;;;;;2.00;2.00;;;;;11.96;73.74;101726.25;6333251;22;46399;-74
2023/01/04 02:41:26;;;;;;;;;1.00;0.75;;;;;11.95;73.60;101720.16;6172301;22;45755;-73
2023/01/04 02:46:52;;;;;;;;;2.50;2.00;;;;;11.95;73.72;101714.06;6175580;23;45752;-74
2023/01/04 02:52:01;;;;;;;;;1.00;1.00;;;;;11.92;73.54;101712.47;6175377;23;45570;-73
2023/01/04 02:57:59;;;;;;;;;2.00;2.00;;;;;11.97;73.64;101717.44;6175245;22;45983;-75
2023/01/04 03:00:27;;;;;;;;;3.00;1.00;;;;;11.97;73.58;101722.69;6174704;23;47184;-73
2023/01/04 03:06:15;;;;;;;;;4.00;2.00;;;;;12.01;73.65;101724.22;6175832;23;45512;-76
2023/01/04 03:09:02;;;;;;;;;2.00;1.25;;;;;12.01;73.72;101724.22;6175353;23;46140;-74
2023/01/04 03:14:26;;;;;;;;;2.00;1.75;;;;;12.03;73.75;101715.31;6176116;23;45819;-75
2023/01/04 03:16:54;;;;;;;;;0.00;0.00;;;;;12.03;73.89;101715.31;6203831;22;45920;-74
2023/01/04 03:19:50;;;;;;;;;1.25;1.25;;;;;12.05;73.79;101723.06;6332915;22;47291;-74
2023/01/04 03:36:35;;;;;;;;;1.25;1.00;;;;;12.06;73.73;101694.09;6333426;22;45612;-75
2023/01/04 03:48:33;;;;;;;;;1.75;1.00;;;;;12.03;74.03;101675.06;6332780;22;45855;-76
2023/01/04 03:51:22;;;;;;;;;1.75;1.50;;;;;12.01;73.99;101667.28;6333055;22;45808;-77
2023/01/04 04:00:19;;;;;;;;;1.25;0.50;;;;;12.08;74.06;101655.47;6332480;22;45580;-76
2023/01/04 04:02:46;;;;;;;;;1.00;0.50;;;;;12.10;73.96;101661.44;6333325;22;45493;-74
2023/01/04 04:10:50;;;;;;;;;0.75;0.75;;;;;12.06;74.28;101644.19;6332196;22;45751;-75
2023/01/04 04:13:15;;;;;;;;;1.00;1.00;;;;;12.08;74.14;101646.75;6333333;22;45746;-77
2023/01/04 04:15:41;;;;;;;;;1.00;1.00;;;;;12.10;74.24;101658.81;6304126;22;48298;-76
2023/01/04 04:18:06;;;;;;;;;1.00;1.00;;;;;12.11;74.29;101643.91;6332005;22;45775;-76
2023/01/04 04:20:32;;;;;;;;;1.25;1.25;;;;;12.12;74.40;101638.56;6304152;22;45727;-76
2023/01/04 04:22:57;;;;;;;;;2.00;1.00;;;;;12.13;74.18;101658.66;6333046;22;45695;-77
2023/01/04 04:25:22;;;;;;;;;1.00;0.75;;;;;12.13;74.37;101656.03;6303483;22;47347;-75
2023/01/04 04:27:48;;;;;;;;;0.00;0.00;;;;;12.13;74.72;101642.03;6332086;22;46455;-74
2023/01/04 04:30:13;;;;;;;;;2.00;1.00;;;;;12.02;74.50;101641.84;6332116;22;45595;-75
2023/01/04 04:32:38;;;;;;;;;0.00;0.00;;;;;12.08;74.37;101641.50;6333264;22;45720;-74
2023/01/04 04:35:04;;;;;;;;;1.00;1.00;;;;;12.17;74.59;101664.56;6332897;22;45554;-73
2023/01/04 04:37:30;;;;;;;;;1.50;1.00;;;;;12.17;74.54;101660.16;6332843;22;46012;-75
2023/01/04 04:43:18;;;;;;;;;1.75;1.75;;;;;12.17;74.48;101662.78;6332518;22;45927;-75
2023/01/04 04:45:43;;;;;;;;;1.00;1.00;;;;;12.19;74.76;101654.81;6333211;22;46725;-76
2023/01/04 04:48:09;;;;;;;;;2.00;1.00;;;;;12.14;74.58;101649.00;6331876;22;47028;-76
2023/01/04 04:50:34;;;;;;;;;1.50;1.25;;;;;12.20;74.82;101657.31;6332073;22;45701;-77
2023/01/04 04:52:59;;;;;;;;;1.00;1.00;;;;;12.19;74.80;101660.06;6332463;22;45709;-75
2023/01/04 04:58:47;;;;;;;;;2.00;1.00;;;;;12.19;74.79;101650.41;6332454;22;45968;-74
2023/01/04 05:01:12;;;;;;;;;1.00;1.00;;;;;12.22;74.72;101661.66;6331762;22;45762;-73
2023/01/04 05:03:38;;;;;;;;;3.50;2.00;;;;;12.18;74.72;101650.50;6333103;22;45640;-77
2023/01/04 05:06:03;;;;;;;;;2.00;1.00;;;;;12.25;74.85;101666.72;6332204;22;46343;-76
2023/01/04 05:08:29;;;;;;;;;3.00;1.00;;;;;12.22;74.77;101651.97;6333318;22;45584;-75
2023/01/04 05:14:16;;;;;;;;;2.00;1.25;;;;;12.27;74.89;101635.94;6332678;22;45633;-75
2023/01/04 05:16:41;;;;;;;;;2.00;1.00;;;;;12.28;74.60;101632.38;6332806;22;47010;-76
2023/01/04 05:19:07;;;;;;;;;1.00;1.00;;;;;12.27;74.78;101639.41;6333076;22;45728;-75
2023/01/04 05:21:32;;;;;;;;;2.00;1.00;;;;;12.27;75.05;101639.41;6331934;22;45609;-75
2023/01/04 05:23:57;;;;;;;;;1.00;1.00;;;;;12.24;74.77;101618.59;6303346;22;45858;-76
2023/01/04 05:32:28;;;;;;;;;1.00;1.00;;;;;12.29;74.93;101636.69;6332167;22;45785;-74
2023/01/04 05:34:54;;;;;;;;;1.75;1.00;;;;;12.30;74.84;101633.13;6333138;22;45599;-77
2023/01/04 05:37:19;;;;;;;;;2.00;2.00;;;;;12.32;74.95;101636.50;6331670;22;46407;-76
2023/01/04 05:39:44;;;;;;;;;1.00;1.00;;;;;12.27;75.28;101636.78;6332045;22;45687;-77
2023/01/04 05:45:31;;;;;;;;;1.00;1.00;;;;;12.33;75.19;101640.81;6332230;22;45862;-76
2023/01/04 05:47:58;;;;;;;;;1.25;1.00;;;;;12.28;75.41;101635.00;6332425;22;45832;-76
2023/01/04 05:50:24;;;;;;;;;1.00;1.00;;;;;12.31;75.55;101642.72;6331251;22;46817;-77
2023/01/04 05:52:50;;;;;;;;;1.00;0.50;;;;;12.28;75.73;101661.28;6332105;22;45503;-76
2023/01/04 05:55:15;;;;;;;;;1.00;0.50;;;;;12.23;75.97;101640.53;6332735;22;45629;-75
2023/01/04 06:01:03;;;;;;;;;1.00;1.00;;;;;12.20;76.34;101625.78;6331856;22;46257;-77
2023/01/04 06:03:28;;;;;;;;;0.25;0.00;;;;;12.22;76.14;101632.75;6332597;22;45791;-75
2023/01/04 06:05:53;;;;;;;;;1.75;1.00;;;;;12.25;76.27;101648.34;6332169;22;45462;-76
2023/01/04 06:08:19;;;;;;;;;1.00;1.00;;;;;12.22;76.03;101654.63;6277098;22;47652;-77
2023/01/04 06:10:44;;;;;;;;;1.00;1.00;;;;;12.10;76.17;101639.59;6331394;22;47109;-75
2023/01/04 06:13:09;;;;;;;;;0.75;0.00;;;;;12.22;76.11;101659.88;6332600;22;45471;-76
2023/01/04 06:15:35;;;;;;;;;0.00;0.00;;;;;12.23;76.31;101672.06;6303294;22;45935;-77
2023/01/04 06:18:00;;;;;;;;;1.00;0.50;;;;;12.28;75.85;101669.16;6331688;22;46381;-76
2023/01/04 06:20:26;;;;;;;;;1.00;1.00;;;;;12.28;76.05;101664.75;6330904;22;46203;-76
2023/01/04 06:22:51;;;;;;;;;0.50;0.50;;;;;12.29;75.85;101661.19;6331256;22;45599;-75
2023/01/04 06:25:17;;;;;;;;;0.75;0.75;;;;;12.34;75.96;101668.78;6331591;22;45519;-75
2023/01/04 06:31:05;;;;;;;;;1.00;1.00;;;;;12.34;76.06;101663.53;6325629;22;46041;-72
2023/01/04 06:33:31;;;;;;;;;0.00;0.00;;;;;12.24;76.24;101630.88;6331418;22;45632;-72
2023/01/04 06:35:56;;;;;;;;;0.25;0.25;;;;;12.35;76.31;101637.16;6332580;22;45475;-72
2023/01/04 06:38:22;;;;;;;;;1.00;1.00;;;;;12.33;76.38;101646.91;6332013;22;46342;-72
2023/01/04 06:40:47;;;;;;;;;0.00;0.00;;;;;12.34;76.50;101640.72;6330968;22;46919;-74
2023/01/04 06:46:34;;;;;;;;;0.00;0.00;;;;;12.36;77.27;101659.84;6333533;22;45467;-73
2023/01/04 06:48:59;;;;;;;;;1.00;0.75;;;;;12.32;77.11;101645.22;6332839;22;46536;-73
2023/01/04 06:51:25;;;;;;;;;1.75;1.00;;;;;12.38;77.11;101651.88;6304165;22;46118;-73
2023/01/04 06:53:50;;;;;;;;;1.00;1.00;;;;;12.40;77.37;101664.00;6306566;22;45770;-73
2023/01/04 06:56:15;;;;;;;;;1.75;1.00;;;;;12.41;77.16;101673.59;6334579;22;45760;-73
2023/01/04 06:58:41;;;;;;;;;0.00;0.00;;;;;12.40;77.12;101677.16;6335178;22;45459;-73
2023/01/04 07:01:07;;;;;;;;;1.25;1.25;;;;;12.42;77.11;101672.63;6332783;22;46188;-72
2023/01/04 07:03:32;;;;;;;;;2.00;1.00;;;;;12.40;76.85;101657.91;6332878;22;45685;-72
2023/01/04 07:05:58;;;;;;;;;0.00;0.00;;;;;12.44;76.68;101662.03;6332790;22;45820;-72
2023/01/04 07:08:23;;;;;;;;;1.00;1.00;;;;;12.44;76.85;101667.28;6332623;22;45723;-73
2023/01/04 07:10:49;;;;;;;;;1.75;1.00;;;;;12.45;76.74;101654.06;6332787;22;45938;-71
2023/01/04 07:16:36;;;;;;;;;0.75;0.75;;;;;12.50;76.74;101659.88;6332384;22;45676;-74
2023/01/04 07:19:01;;;;;;;;;2.25;1.00;;;;;12.50;76.67;101659.88;6331598;22;47381;-70
2023/01/04 07:21:28;;;;;;;;;0.00;0.00;;;;;12.54;76.63;101660.50;6331608;22;46932;-72
2023/01/04 07:23:54;;;;;;;;;0.50;0.50;;;;;12.55;76.25;101652.53;6330644;22;45694;-72
2023/01/04 07:26:19;;;;;;;;;0.75;0.75;;;;;12.59;76.23;101653.19;6331735;22;45556;-74
2023/01/04 07:31:28;;;;;;;;;1.00;0.00;;;;;12.62;76.28;101653.00;6332628;22;45715;-74
2023/01/04 07:33:54;;;;;;;;;0.00;0.00;;;;;12.66;76.27;101648.38;6333885;22;45620;-72
2023/01/04 07:36:19;;;;;;;;;1.00;0.00;;;;;12.67;76.07;101650.06;6333507;22;45760;-73
2023/01/04 07:38:44;;;;;;;;;0.00;0.00;;;;;12.68;76.20;101657.03;6333317;22;46540;-74
2023/01/04 07:41:10;;;;;;;;;0.00;0.00;;;;;12.68;75.75;101663.13;6332937;22;45584;-74
2023/01/04 07:46:57;;;;;;;;;0.00;0.00;;;;;12.69;75.95;101674.47;6333238;22;45686;-73
2023/01/04 07:49:22;;;;;;;;;0.00;0.00;;;;;12.68;75.88;101673.66;6304182;22;46736;-74
2023/01/04 07:51:48;;;;;;;;;0.75;0.25;;;;;12.73;76.07;101673.34;6332780;22;45640;-73
2023/01/04 07:54:15;;;;;;;;;1.00;0.25;;;;;12.72;76.01;101663.78;6333056;22;45667;-73
2023/01/04 07:56:41;;;;;;;;;1.00;1.00;;;;;12.74;75.90;101640.88;6332626;22;45488;-72
2023/01/04 08:02:28;;;;;;;;;1.00;1.00;;;;;12.76;76.05;101652.97;6332877;22;45980;-72
2023/01/04 08:04:55;;;;;;;;;1.00;1.00;;;;;12.79;76.07;101659.81;6333452;22;45677;-72
2023/01/04 08:07:20;;;;;;;;;1.50;1.00;;;;;12.83;75.59;101674.47;6332521;22;45689;-73
2023/01/04 08:09:45;;;;;;;;;1.00;1.00;;;;;12.84;75.68;101668.28;6332565;22;47607;-74
2023/01/04 08:12:11;;;;;;;;;2.00;1.00;;;;;12.85;75.90;101664.66;6333145;22;45628;-73
2023/01/04 08:14:36;;;;;;;;;1.00;0.50;;;;;12.88;75.87;101664.50;6332288;22;45585;-73
2023/01/04 08:17:01;;;;;;;;;1.50;1.00;;;;;12.88;76.22;101654.81;6332873;22;45701;-74
2023/01/04 08:19:27;;;;;;;;;1.25;0.75;;;;;12.88;76.07;101651.34;6332024;22;47470;-72
2023/01/04 08:21:52;;;;;;;;;1.00;1.00;;;;;12.90;75.86;101646.84;6304155;22;48088;-73
2023/01/04 08:24:18;;;;;;;;;1.00;1.00;;;;;12.88;75.86;101657.44;6333112;22;45648;-72
2023/01/04 08:26:45;;;;;;;;;2.00;0.25;;;;;12.93;75.93;101660.63;6332434;22;45576;-73
2023/01/04 08:32:31;;;;;;;;;1.00;1.00;;;;;12.95;76.10;101650.03;6326790;22;45778;-73
2023/01/04 08:34:57;;;;;;;;;1.00;1.00;;;;;12.96;76.03;101652.53;6333105;22;45724;-74
2023/01/04 08:37:22;;;;;;;;;1.00;1.00;;;;;12.97;76.08;101651.59;6332647;22;45541;-73
2023/01/04 08:39:48;;;;;;;;;1.00;1.00;;;;;12.99;76.26;101657.59;6332549;22;46978;-73
2023/01/04 08:42:13;;;;;;;;;1.00;0.75;;;;;13.02;75.64;101661.81;6332975;22;46940;-74
2023/01/04 08:44:38;;;;;;;;;1.00;1.00;;;;;13.02;75.74;101657.41;6333728;22;45906;-74
2023/01/04 08:47:04;;;;;;;;;1.75;1.00;;;;;13.00;75.76;101654.03;6305182;22;45776;-75
2023/01/04 08:49:29;;;;;;;;;1.00;1.00;;;;;13.05;76.11;101664.25;6332713;22;45604;-73
2023/01/04 08:51:54;;;;;;;;;0.00;0.00;;;;;13.08;75.64;101682.47;6332372;22;46265;-73
2023/01/04 08:54:21;;;;;;;;;1.00;0.00;;;;;13.09;75.74;101673.63;6333124;22;45569;-72
2023/01/04 08:56:47;;;;;;;;;2.00;0.00;;;;;13.06;75.91;101657.22;6333132;22;45904;-74
2023/01/04 09:02:34;;;;;;;;;1.50;1.00;;;;;13.12;75.88;101680.53;6332547;22;45595;-74
2023/01/04 09:05:02;;;;;;;;;1.00;0.25;;;;;13.12;76.50;101683.97;6331919;22;45725;-73
2023/01/04 09:07:29;;;;;;;;;0.75;0.75;;;;;13.05;76.14;101666.91;6331522;22;45670;-72
2023/01/04 09:09:56;;;;;;;;;1.00;0.00;;;;;13.12;76.77;101680.53;6331931;22;46268;-74
2023/01/04 09:12:22;;;;;;;;;0.00;0.00;;;;;13.13;76.15;101664.63;6333184;22;46177;-74
2023/01/04 09:14:47;;;;;;;;;1.50;1.50;;;;;13.09;76.17;101663.13;6332941;22;45910;-73
2023/01/04 09:17:12;;;;;;;;;1.00;0.75;;;;;13.16;76.57;101676.75;6332984;22;45696;-74
2023/01/04 09:19:38;;;;;;;;;0.00;0.00;;;;;13.16;76.18;101664.44;6332793;22;46101;-73
2023/01/04 09:22:03;;;;;;;;;2.00;1.00;;;;;13.17;76.00;101652.13;6332354;22;46627;-73
2023/01/04 09:24:32;;;;;;;;;0.00;0.00;;;;;13.19;75.99;101663.38;6332461;22;45538;-74
2023/01/04 09:26:58;;;;;;;;;1.00;0.00;;;;;13.20;75.93;101657.19;6333261;22;45849;-74
2023/01/04 09:32:46;;;;;;;;;2.00;1.00;;;;;13.19;76.08;101651.06;6331970;22;45876;-71
2023/01/04 09:35:12;;;;;;;;;1.00;1.00;;;;;13.21;76.06;101641.31;6333457;22;45424;-73
2023/01/04 09:37:37;;;;;;;;;0.00;0.00;;;;;13.18;76.22;101630.97;6305253;22;45822;-72
2023/01/04 09:40:03;;;;;;;;;0.00;0.00;;;;;13.23;76.26;101631.50;6304526;22;47141;-72
2023/01/04 09:49:35;;;;;;;;;3.00;0.50;;;;;13.27;76.01;101634.81;6332864;22;45696;-73
2023/01/04 09:52:08;;;;;;;;;0.25;0.00;;;;;13.28;75.73;101637.31;6332119;22;46653;-74
2023/01/04 09:54:44;;;;;;;;;1.00;1.00;;;;;13.30;75.52;101648.59;6332040;22;46114;-74
2023/01/04 09:57:20;;;;;;;;;1.00;1.00;;;;;13.31;75.98;101636.28;6331977;22;45686;-75
2023/01/04 09:59:48;;;;;;;;;0.00;0.00;;;;;13.35;75.91;101643.88;6332125;22;45506;-72
2023/01/04 10:02:24;;;;;;;;;0.00;0.00;;;;;13.37;75.34;101663.03;6304158;22;48888;-73
2023/01/04 10:04:51;;;;;;;;;1.75;1.00;;;;;13.39;75.81;101669.03;6332379;22;45949;-73
2023/01/04 10:07:31;;;;;;;;;1.75;1.00;;;;;13.42;75.37;101665.38;6332447;22;45561;-71
2023/01/04 10:09:57;;;;;;;;;0.50;0.50;;;;;13.40;75.95;101673.34;6331705;22;45489;-72
2023/01/04 10:12:38;;;;;;;;;1.00;1.00;;;;;13.45;75.17;101678.31;6331938;22;47262;-73
2023/01/04 10:15:26;;;;;;;;;1.00;1.00;;;;;13.48;75.56;101666.75;6331901;22;47124;-72
2023/01/04 10:18:16;;;;;;;;;1.00;1.00;;;;;13.50;75.47;101670.94;6332323;22;45768;-75
2023/01/04 10:21:06;;;;;;;;;1.00;1.00;;;;;13.50;75.42;101678.00;6333231;22;45819;-74
2023/01/04 10:23:41;;;;;;;;;0.00;0.00;;;;;13.53;75.16;101664.66;6334334;22;45460;-73
2023/01/04 10:26:24;;;;;;;;;1.00;1.00;;;;;13.55;74.79;101671.50;6305593;22;47225;-72
2023/01/04 10:32:36;;;;;;;;;0.75;0.75;;;;;13.55;74.84;101668.03;6333893;22;45770;-73
2023/01/04 10:35:17;;;;;;;;;1.00;1.00;;;;;13.55;75.15;101654.88;6334083;22;46544;-73
2023/01/04 10:37:45;;;;;;;;;0.75;0.75;;;;;13.57;74.80;101656.44;6305123;22;47670;-70
2023/01/04 10:40:14;;;;;;;;;1.50;1.00;;;;;13.60;74.93;101656.25;6305057;22;45706;-74
2023/01/04 10:47:10;;;;;;;;;2.00;2.00;;;;;13.60;75.16;101648.34;6205762;22;45725;-73
2023/01/04 10:49:57;;;;;;;;;0.75;0.75;;;;;13.61;74.90;101652.66;6205387;22;46184;-73
2023/01/04 10:53:01;;;;;;;;;1.00;1.00;;;;;13.60;74.98;101644.88;6206053;22;45890;-73
2023/01/04 10:55:35;;;;;;;;;1.50;1.00;;;;;13.63;75.39;101647.28;6175696;23;45727;-73
2023/01/04 10:58:03;;;;;;;;;1.00;1.00;;;;;13.63;75.27;101663.09;6150224;23;47201;-74
2023/01/04 11:04:03;;;;;;;;;0.25;0.25;;;;;13.63;75.42;101652.56;6175965;23;45752;-74
2023/01/04 11:06:37;;;;;;;;;1.00;1.00;;;;;13.64;75.09;101647.19;6175441;23;45574;-74
2023/01/04 11:09:27;;;;;;;;;0.50;0.00;;;;;13.69;75.39;101644.25;6176034;23;46036;-74
2023/01/04 11:11:56;;;;;;;;;2.00;1.00;;;;;13.68;75.30;101634.66;6154555;23;46152;-73
2023/01/04 11:14:23;;;;;;;;;0.25;0.25;;;;;13.67;75.37;101640.88;6150495;23;45487;-74
2023/01/04 11:16:51;;;;;;;;;4.75;1.00;;;;;13.63;75.26;101647.28;6175326;23;46053;-73
2023/01/04 11:19:16;;;;;;;;;1.50;1.50;;;;;13.65;75.15;101651.53;6175789;23;45961;-73
2023/01/04 11:21:50;;;;;;;;;1.00;1.00;;;;;13.64;75.01;101643.72;6191467;22;45746;-74
2023/01/04 11:24:16;;;;;;;;;0.50;0.50;;;;;13.62;75.27;101638.53;6268279;22;45626;-74
2023/01/04 11:26:43;;;;;;;;;2.00;1.00;;;;;13.62;75.51;101635.06;6267720;22;45726;-74
2023/01/04 11:29:32;;;;;;;;;1.75;1.00;;;;;13.61;75.74;101622.84;6266770;22;46393;-74
2023/01/04 11:32:05;;;;;;;;;1.00;1.00;;;;;13.56;75.72;101632.84;6306753;22;46000;-73
2023/01/04 11:35:00;;;;;;;;;1.25;1.00;;;;;13.58;76.26;101633.59;6333099;22;45495;-72
2023/01/04 11:37:34;;;;;;;;;1.00;1.00;;;;;13.56;76.44;101609.16;6175501;23;45712;-74
2023/01/04 11:40:17;;;;;;;;;0.50;0.00;;;;;13.56;76.38;101620.53;6174813;23;46437;-73
2023/01/04 11:42:49;;;;;;;;;1.50;0.75;;;;;13.47;77.09;101604.50;6175826;23;46661;-73
2023/01/04 11:45:25;;;;;;;;;2.00;1.00;;;;;13.54;76.61;101617.16;6175236;23;45699;-74
2023/01/04 11:47:54;;;;;;;;;1.00;1.00;;;;;13.56;76.69;101614.41;6175590;23;45582;-73
2023/01/04 11:50:38;;;;;;;;;1.00;1.00;;;;;13.58;77.01;101608.09;6174784;23;46354;-75
2023/01/04 11:53:26;;;;;;;;;1.00;0.50;;;;;13.58;76.62;101608.09;6175559;23;47063;-75
2023/01/04 11:56:06;;;;;;;;;0.00;0.00;;;;;13.55;76.42;101597.75;6175068;23;45939;-74
2023/01/04 11:58:32;;;;;;;;;1.00;1.00;;;;;13.56;76.79;101595.97;6175514;23;45689;-73
2023/01/04 12:00:57;;;;;;;;;0.50;0.00;;;;;13.51;76.81;101587.56;6174646;23;45738;-74
2023/01/04 12:03:39;;;;;;;;;0.00;0.00;;;;;13.60;76.68;101600.13;6125026;23;47512;-74
2023/01/04 12:06:29;;;;;;;;;0.50;0.00;;;;;13.64;76.52;101589.25;6149985;23;45714;-74
2023/01/04 12:08:54;;;;;;;;;0.00;0.00;;;;;13.64;76.93;101580.53;6176288;23;45897;-72
2023/01/04 12:11:30;;;;;;;;;0.00;0.00;;;;;13.67;76.92;101582.94;6174790;23;46803;-75
2023/01/04 12:17:29;;;;;;;;;0.75;0.75;;;;;13.71;77.03;101582.59;6332765;22;45767;-73
2023/01/04 12:19:56;;;;;;;;;0.25;0.00;;;;;13.71;77.06;101594.97;6332334;22;45574;-72
2023/01/04 12:22:25;;;;;;;;;0.50;0.50;;;;;13.74;76.79;101585.06;6332910;22;45853;-73
2023/01/04 12:24:52;;;;;;;;;1.00;0.75;;;;;13.77;76.78;101594.50;6333260;22;46072;-73
2023/01/04 12:27:17;;;;;;;;;0.50;0.00;;;;;13.77;77.15;101583.97;6332912;22;45711;-73
2023/01/04 12:33:29;;;;;;;;;0.00;0.00;;;;;13.81;76.50;101582.84;6330710;22;45584;-75
2023/01/04 12:36:02;;;;;;;;;1.00;1.00;;;;;13.63;76.92;101557.75;6332811;22;46308;-73
2023/01/04 12:38:50;;;;;;;;;0.50;0.50;;;;;13.80;76.58;101582.00;6331965;22;45586;-73
2023/01/04 12:41:20;;;;;;;;;1.00;0.00;;;;;13.83;76.69;101575.66;6332354;22;45454;-72
2023/01/04 12:43:46;;;;;;;;;0.00;0.00;;;;;13.79;76.66;101561.03;6332074;22;45831;-73
2023/01/04 12:49:55;;;;;;;;;0.00;0.00;;;;;13.86;76.64;101555.25;6332222;22;45652;-73
2023/01/04 12:52:20;;;;;;;;;0.00;0.00;;;;;13.88;76.71;101553.31;6333157;22;45534;-74
2023/01/04 12:54:58;;;;;;;;;0.50;0.25;;;;;13.87;76.70;101551.63;6332778;22;45579;-75
2023/01/04 12:57:27;;;;;;;;;0.00;0.00;;;;;13.85;76.71;101539.53;6331866;22;46958;-73
2023/01/04 13:00:11;;;;;;;;;0.50;0.00;;;;;13.92;76.67;101553.13;6332178;22;45791;-73
2023/01/04 13:02:42;;;;;;;;;0.00;0.00;;;;;13.91;76.86;101547.00;6333014;22;45511;-72
2023/01/04 13:05:17;;;;;;;;;0.00;0.00;;;;;13.95;77.12;101547.63;6304340;22;45837;-73
2023/01/04 13:07:55;;;;;;;;;1.00;1.00;;;;;13.97;76.84;101545.75;6331839;22;46422;-74
2023/01/04 13:10:34;;;;;;;;;0.00;0.00;;;;;13.96;77.24;101544.91;6332587;22;45597;-74
2023/01/04 13:13:16;;;;;;;;;0.00;0.00;;;;;13.86;77.33;101517.50;6332931;22;45641;-71
2023/01/04 13:15:57;;;;;;;;;0.00;0.00;;;;;13.99;77.15;101542.03;6332662;22;45591;-74
2023/01/04 13:18:32;;;;;;;;;1.00;0.00;;;;;14.04;77.08;101546.97;6332748;22;45818;-73
2023/01/04 13:21:00;;;;;;;;;0.00;0.00;;;;;14.02;77.00;101541.00;6331390;22;45561;-72
2023/01/04 13:23:26;;;;;;;;;0.00;0.00;;;;;14.05;77.17;101546.03;6333003;22;45574;-73
2023/01/04 13:25:52;;;;;;;;;0.00;0.00;;;;;14.08;76.93;101541.41;6303839;22;47286;-72
2023/01/04 13:28:18;;;;;;;;;0.00;0.00;;;;;14.11;77.14;101551.72;6331897;22;46931;-73
2023/01/04 13:30:45;;;;;;;;;0.00;0.00;;;;;14.13;77.66;101547.19;6303596;22;45710;-72
2023/01/04 13:33:20;;;;;;;;;1.00;0.00;;;;;14.13;77.66;101554.25;6332477;22;45514;-71
2023/01/04 13:36:03;;;;;;;;;0.00;0.00;;;;;14.13;77.87;101531.38;6331782;22;47250;-74
2023/01/04 13:38:38;;;;;;;;;0.00;0.00;;;;;14.11;77.75;101525.34;6332106;22;45985;-74
2023/01/04 13:41:19;;;;;;;;;0.00;0.00;;;;;14.14;77.56;101527.75;6332662;22;45745;-74
2023/01/04 13:44:08;;;;;;;;;0.00;0.00;;;;;14.14;77.91;101527.75;6304294;22;45789;-73
2023/01/04 13:46:33;;;;;;;;;0.00;0.00;;;;;14.15;77.58;101532.09;6331424;22;45619;-75
2023/01/04 13:49:01;;;;;;;;;0.00;0.00;;;;;14.15;78.02;101532.09;6332253;22;45620;-74
2023/01/04 13:51:33;;;;;;;;;0.00;0.00;;;;;14.19;78.14;101538.84;6331451;22;45617;-73
2023/01/04 13:54:00;;;;;;;;;0.00;0.00;;;;;14.21;77.75;101526.38;6332270;22;45799;-74
2023/01/04 13:56:28;;;;;;;;;0.00;0.00;;;;;14.17;78.04;101513.53;6331840;22;47209;-75
2023/01/04 13:58:54;;;;;;;;;0.00;0.00;;;;;14.24;77.54;101525.34;6331955;22;46217;-74
2023/01/04 14:01:26;;;;;;;;;0.00;0.00;;;;;14.25;78.17;101527.03;6332173;22;45517;-73
2023/01/04 14:03:56;;;;;;;;;0.00;0.00;;;;;14.26;77.86;101520.78;6332065;22;45795;-75
2023/01/04 14:06:27;;;;;;;;;0.00;0.00;;;;;14.27;78.07;101522.47;6332444;22;45522;-75
2023/01/04 14:09:12;;;;;;;;;0.00;0.00;;;;;14.28;78.16;101516.25;6331604;22;47164;-74